Time;durP1;ratioP1;P1;durP2;ratioP2;P2;SDS_P1;SDS_P2;PMS_P1;PMS_P2;Temp;Humidity;BMP_temperature;BMP_pressure;BME280_temperature;BME280_humidity;BME280_pressure;Samples;Min_cycle;Max_cycle;Signal;HPM_P1;HPM_P2
2023/07/30 00:03:42;;;;;;;4.20;1.80;;;;;;;22.30;58.68;99348.78;7766137;32;38664;-78
2023/07/30 00:07:58;;;;;;;7.53;1.70;;;;;;;22.28;58.83;99354.72;7777580;32;37093;-78
2023/07/30 00:12:15;;;;;;;6.07;1.80;;;;;;;22.07;59.87;99368.03;7791653;32;39159;-78
2023/07/30 00:16:31;;;;;;;5.93;1.80;;;;;;;22.29;59.34;99374.94;7790199;32;39938;-79
2023/07/30 00:20:47;;;;;;;3.97;2.00;;;;;;;22.07;60.06;99387.47;7791057;32;38702;-79
2023/07/30 00:25:04;;;;;;;4.05;2.10;;;;;;;22.07;60.14;99379.16;7791273;32;37297;-78
2023/07/30 00:29:20;;;;;;;3.03;2.03;;;;;;;22.25;59.54;99374.00;7789189;32;40536;-78
2023/07/30 00:33:37;;;;;;;2.47;1.85;;;;;;;22.17;60.11;99372.25;7763715;32;40026;-78
2023/07/30 00:37:53;;;;;;;9.82;2.10;;;;;;;22.13;59.95;99370.19;7764263;32;37901;-78
2023/07/30 00:42:09;;;;;;;4.68;2.00;;;;;;;22.34;59.08;99379.44;7763765;32;37841;-78
2023/07/30 00:46:26;;;;;;;3.60;2.12;;;;;;;22.32;59.01;99368.69;7763855;32;39364;-80
2023/07/30 00:50:42;;;;;;;3.17;2.03;;;;;;;22.47;58.49;99369.78;7749906;32;39910;-80
2023/07/30 00:55:01;;;;;;;5.68;2.00;;;;;;;22.55;58.19;99368.00;7763568;32;37618;-78
2023/07/30 00:59:18;;;;;;;4.68;2.22;;;;;;;22.32;58.77;99360.34;7749912;32;36378;-78
2023/07/30 01:03:34;;;;;;;3.78;2.15;;;;;;;22.50;58.28;99355.19;7763248;32;39580;-79
2023/07/30 01:07:51;;;;;;;4.22;2.03;;;;;;;22.44;58.78;99356.66;7763276;32;40571;-78
2023/07/30 01:12:08;;;;;;;3.15;2.08;;;;;;;22.06;60.28;99353.37;7782538;32;38691;-78
2023/07/30 01:16:24;;;;;;;3.70;2.10;;;;;;;22.38;59.13;99347.78;7776129;32;37028;-78
2023/07/30 01:20:40;;;;;;;4.45;1.98;;;;;;;22.26;59.67;99347.88;7790217;32;39471;-78
2023/07/30 01:24:57;;;;;;;3.83;2.17;;;;;;;22.40;59.18;99345.44;7789916;32;40626;-77
2023/07/30 01:29:33;;;;;;;4.40;1.98;;;;;;;22.42;59.15;99337.56;7792092;32;38701;-78
2023/07/30 01:33:52;;;;;;;3.67;2.17;;;;;;;22.40;59.25;99325.19;7780208;32;36762;-78
2023/07/30 01:38:09;;;;;;;4.55;2.10;;;;;;;22.56;58.70;99308.47;7759699;32;40035;-78
2023/07/30 01:42:30;;;;;;;4.45;1.92;;;;;;;22.43;59.05;99307.81;7752538;32;40062;-78
2023/07/30 01:46:46;;;;;;;3.47;2.08;;;;;;;22.57;58.75;99299.00;7767022;32;37849;-78
2023/07/30 01:51:02;;;;;;;3.35;2.08;;;;;;;22.61;58.69;99302.63;7766532;32;37980;-78
2023/07/30 01:55:19;;;;;;;3.15;1.85;;;;;;;22.76;58.21;99304.53;7766419;32;40563;-78
2023/07/30 01:59:35;;;;;;;3.22;1.92;;;;;;;22.73;58.57;99308.03;7766091;32;40605;-79
2023/07/30 02:03:51;;;;;;;4.25;1.83;;;;;;;22.75;58.37;99297.41;7766049;32;38645;-78
2023/07/30 02:08:08;;;;;;;5.80;2.40;;;;;;;22.77;58.24;99308.16;7766875;32;37901;-78
2023/07/30 02:12:24;;;;;;;2.87;1.98;;;;;;;22.84;58.04;99306.31;7766191;32;40067;-79
2023/07/30 02:16:40;;;;;;;5.00;2.03;;;;;;;23.01;57.50;99304.25;7766008;32;40923;-78
2023/07/30 02:20:57;;;;;;;6.32;2.00;;;;;;;22.94;57.86;99298.53;7765942;32;38750;-78
2023/07/30 02:25:14;;;;;;;3.08;1.80;;;;;;;22.84;58.12;99308.28;7780828;32;36807;-78
2023/07/30 02:29:31;;;;;;;3.37;1.85;;;;;;;22.86;58.06;99295.62;7778981;32;39357;-79
2023/07/30 02:33:47;;;;;;;3.45;2.00;;;;;;;23.00;57.65;99286.75;7778979;32;40770;-78
2023/07/30 02:38:03;;;;;;;3.25;2.12;;;;;;;23.01;57.64;99293.13;7792956;32;38060;-78
2023/07/30 02:42:20;;;;;;;2.45;1.80;;;;;;;23.09;57.25;99299.66;7792111;32;37203;-78
2023/07/30 02:46:36;;;;;;;4.25;2.00;;;;;;;22.99;57.54;99309.34;7792928;32;39302;-78
2023/07/30 02:50:52;;;;;;;3.50;1.83;;;;;;;23.07;57.17;99311.12;7792850;32;40781;-79
2023/07/30 02:55:09;;;;;;;6.60;2.25;;;;;;;23.06;57.11;99304.00;7793195;32;36078;-79
2023/07/30 02:59:25;;;;;;;3.80;2.10;;;;;;;23.02;57.14;99291.94;7792614;32;37621;-78
2023/07/30 03:03:41;;;;;;;3.60;2.15;;;;;;;23.06;57.06;99292.87;7785512;32;39282;-78
2023/07/30 03:07:57;;;;;;;2.90;1.87;;;;;;;22.78;57.94;99293.88;7765503;32;40071;-78
2023/07/30 03:12:14;;;;;;;2.95;1.65;;;;;;;22.69;58.22;99299.63;7765318;32;38819;-78
2023/07/30 03:16:30;;;;;;;3.20;2.10;;;;;;;22.76;58.05;99301.75;7765394;32;37212;-78
2023/07/30 03:20:47;;;;;;;3.03;1.87;;;;;;;22.82;57.86;99302.28;7765411;32;39446;-79
2023/07/30 03:25:03;;;;;;;4.07;1.98;;;;;;;22.56;58.87;99314.87;7765210;32;40510;-78
2023/07/30 03:29:20;;;;;;;5.37;2.00;;;;;;;22.49;59.00;99314.69;7765133;32;38153;-78
2023/07/30 03:33:38;;;;;;;4.28;2.00;;;;;;;22.45;59.27;99314.59;7751285;32;37800;-78
2023/07/30 03:37:54;;;;;;;3.90;1.90;;;;;;;22.46;59.50;99327.34;7751175;32;41054;-78
2023/07/30 03:42:11;;;;;;;4.90;2.10;;;;;;;22.47;59.65;99323.41;7764913;32;40095;-78
2023/07/30 03:46:27;;;;;;;2.25;1.62;;;;;;;22.39;60.14;99321.63;7765756;32;37563;-78
2023/07/30 03:50:43;;;;;;;4.28;2.33;;;;;;;22.42;60.28;99320.09;7765558;32;37159;-78
2023/07/30 03:55:00;;;;;;;2.75;1.77;;;;;;;22.42;60.58;99328.41;7751113;32;39392;-78
2023/07/30 03:59:16;;;;;;;5.78;2.47;;;;;;;22.36;60.91;99322.34;7764575;32;40753;-79
2023/07/30 04:03:32;;;;;;;4.20;2.22;;;;;;;22.52;60.41;99321.50;7764514;32;37906;-79
2023/07/30 04:07:49;;;;;;;4.85;1.85;;;;;;;22.64;60.00;99327.72;7764694;32;37921;-78
2023/07/30 04:12:05;;;;;;;3.37;1.73;;;;;;;22.43;61.14;99322.50;7764585;32;39805;-79
2023/07/30 04:16:22;;;;;;;3.22;1.90;;;;;;;22.60;60.82;99328.81;7763493;32;40011;-78
2023/07/30 04:20:38;;;;;;;5.72;2.05;;;;;;;22.48;61.29;99347.22;7763111;32;38659;-79
2023/07/30 04:24:54;;;;;;;5.12;1.80;;;;;;;22.63;60.94;99342.00;7763107;32;37942;-78
2023/07/30 04:29:11;;;;;;;7.72;2.00;;;;;;;22.60;61.33;99343.50;7771384;32;39367;-78
2023/07/30 04:33:28;;;;;;;3.50;2.30;;;;;;;22.63;61.39;99345.56;7789937;32;39766;-78
2023/07/30 04:37:44;;;;;;;5.62;2.20;;;;;;;22.72;61.29;99341.78;7789877;32;37999;-78
2023/07/30 04:42:00;;;;;;;5.60;2.20;;;;;;;22.76;61.15;99328.75;7789665;32;37376;-79
2023/07/30 04:46:17;;;;;;;3.67;1.90;;;;;;;22.71;61.79;99327.06;7789775;32;39190;-78
2023/07/30 04:50:33;;;;;;;3.25;2.12;;;;;;;22.82;61.53;99330.87;7789547;32;40900;-78
2023/07/30 04:54:49;;;;;;;5.15;2.37;;;;;;;22.94;61.36;99334.66;7789286;32;38825;-78
2023/07/30 04:59:06;;;;;;;3.70;2.20;;;;;;;23.00;60.98;99341.56;7789152;32;37141;-78
2023/07/30 05:03:22;;;;;;;5.43;1.95;;;;;;;23.11;60.73;99341.78;7790556;32;39507;-78
2023/07/30 05:07:39;;;;;;;5.20;2.17;;;;;;;22.92;61.35;99348.13;7792699;32;39756;-78
2023/07/30 05:11:55;;;;;;;4.22;2.30;;;;;;;22.92;61.12;99348.13;7793447;32;37831;-78
2023/07/30 05:16:11;;;;;;;5.37;1.95;;;;;;;22.88;60.29;99354.41;7792482;32;37898;-79
2023/07/30 05:20:28;;;;;;;4.45;2.25;;;;;;;23.05;59.66;99355.16;7793800;32;40099;-78
2023/07/30 05:24:44;;;;;;;3.78;2.10;;;;;;;23.05;59.43;99352.38;7793768;32;40069;-78
2023/07/30 05:29:00;;;;;;;3.95;1.98;;;;;;;23.11;59.70;99345.41;7793666;32;38702;-78
2023/07/30 05:33:17;;;;;;;3.33;2.00;;;;;;;23.10;59.32;99326.28;7793721;32;37638;-78
2023/07/30 05:37:33;;;;;;;4.10;2.10;;;;;;;23.19;59.05;99327.66;7793692;32;40085;-78
2023/07/30 05:41:49;;;;;;;6.25;2.00;;;;;;;23.30;58.72;99324.28;7793396;32;39974;-78
2023/07/30 05:46:06;;;;;;;3.12;1.98;;;;;;;23.31;59.59;99328.69;7793222;32;38031;-77
2023/07/30 05:50:22;;;;;;;5.25;2.15;;;;;;;23.43;59.37;99323.72;7793377;32;37059;-78
2023/07/30 05:54:38;;;;;;;1.98;1.55;;;;;;;23.25;59.96;99328.97;7793520;32;40852;-77
2023/07/30 05:58:55;;;;;;;3.25;2.00;;;;;;;23.31;59.50;99334.22;7793335;32;40804;-78
2023/07/30 06:03:12;;;;;;;3.75;2.10;;;;;;;23.26;59.40;99340.91;7788493;32;38696;-72
2023/07/30 06:07:28;;;;;;;4.28;2.08;;;;;;;23.37;58.82;99346.66;7791243;32;37331;-79
2023/07/30 06:11:44;;;;;;;4.37;2.28;;;;;;;23.62;58.29;99339.56;7793380;32;39562;-78
2023/07/30 06:16:01;;;;;;;4.03;2.00;;;;;;;23.93;57.44;99343.28;7792345;32;40090;-76
2023/07/30 06:20:17;;;;;;;3.00;1.85;;;;;;;24.08;56.84;99340.75;7790740;32;38598;-77
2023/07/30 06:24:34;;;;;;;4.40;2.05;;;;;;;24.20;56.72;99337.75;7780176;32;37110;-76
2023/07/30 06:29:08;;;;;;;3.60;2.30;;;;;;;24.23;56.82;99331.41;7772897;32;40997;-79
2023/07/30 06:33:24;;;;;;;5.50;2.05;;;;;;;24.32;56.85;99331.16;7791193;32;40924;-78
2023/07/30 06:37:42;;;;;;;2.95;2.00;;;;;;;24.50;56.30;99328.63;7772262;32;37978;-79
2023/07/30 06:41:58;;;;;;;2.95;2.05;;;;;;;24.48;56.36;99337.34;7774123;32;36337;-78
2023/07/30 06:46:15;;;;;;;4.37;2.10;;;;;;;24.36;56.44;99324.44;7776892;32;40678;-77
2023/07/30 06:50:31;;;;;;;5.40;2.40;;;;;;;24.27;57.13;99329.50;7791069;32;39645;-78
2023/07/30 06:54:48;;;;;;;6.40;2.40;;;;;;;24.46;57.19;99331.34;7754712;32;37944;-79
2023/07/30 06:59:04;;;;;;;4.45;2.00;;;;;;;24.20;57.97;99332.19;7764783;32;37250;-85
2023/07/30 07:03:20;;;;;;;6.03;2.40;;;;;;;24.21;58.03;99331.00;7750732;32;39429;-84
2023/07/30 07:07:39;;;;;;;5.28;2.10;;;;;;;24.23;58.61;99331.41;7768581;32;39774;-88
2023/07/30 07:11:59;;;;;;;5.53;2.20;;;;;;;24.02;59.28;99347.81;7792107;32;37897;-89
2023/07/30 07:16:16;;;;;;;5.12;2.12;;;;;;;23.77;60.19;99353.75;7792421;32;38057;-78
2023/07/30 07:20:32;;;;;;;7.03;2.80;;;;;;;24.06;59.60;99368.16;7792029;32;39342;-79
2023/07/30 07:24:49;;;;;;;5.15;2.67;;;;;;;23.72;60.23;99381.88;7784723;32;39996;-80
2023/07/30 07:29:05;;;;;;;4.47;2.37;;;;;;;23.61;60.89;99407.53;7767130;32;38639;-82
2023/07/30 07:33:22;;;;;;;4.40;2.15;;;;;;;23.28;60.03;99413.63;7791764;32;38128;-82
2023/07/30 07:37:38;;;;;;;5.75;2.62;;;;;;;23.32;59.43;99417.31;7791694;32;37479;-82
2023/07/30 07:41:55;;;;;;;3.85;1.90;;;;;;;23.49;60.25;99416.03;7772087;32;40924;-82
2023/07/30 07:46:14;;;;;;;5.62;2.42;;;;;;;23.23;59.03;99423.09;7778018;32;38481;-81
2023/07/30 07:50:30;;;;;;;4.60;2.58;;;;;;;23.68;58.05;99417.16;7776280;32;37260;-81
2023/07/30 07:54:47;;;;;;;5.50;2.72;;;;;;;23.44;59.21;99416.34;7768051;32;40105;-82
2023/07/30 07:59:03;;;;;;;5.05;2.20;;;;;;;23.58;58.68;99422.16;7780134;32;168282;-82
2023/07/30 08:03:19;;;;;;;3.80;2.62;;;;;;;23.52;60.36;99417.28;7790373;32;38481;-80
2023/07/30 08:07:36;;;;;;;5.47;2.67;;;;;;;23.42;61.66;99433.41;7791770;32;37757;-79
2023/07/30 08:11:52;;;;;;;5.22;2.70;;;;;;;23.55;61.50;99439.59;7791573;32;40147;-80
2023/07/30 08:16:08;;;;;;;4.93;2.85;;;;;;;23.52;61.38;99434.75;7787346;32;39990;-84
2023/07/30 08:20:25;;;;;;;9.13;2.62;;;;;;;23.71;61.91;99422.00;7786433;32;37686;-85
2023/07/30 08:24:41;;;;;;;5.40;2.45;;;;;;;23.77;62.32;99412.19;7791285;32;37724;-82
2023/07/30 08:28:57;;;;;;;8.02;2.60;;;;;;;23.88;62.52;99415.19;7791440;32;39405;-81
2023/07/30 08:33:14;;;;;;;8.48;2.83;;;;;;;23.96;62.85;99420.50;7791172;32;39915;-81
2023/07/30 08:37:30;;;;;;;5.45;2.78;;;;;;;23.92;63.91;99432.75;7788423;32;38004;-79
2023/07/30 08:41:47;;;;;;;5.07;2.72;;;;;;;24.03;62.18;99422.59;7789386;32;38299;-77
2023/07/30 08:46:03;;;;;;;4.60;2.80;;;;;;;24.07;62.97;99431.00;7790534;32;39874;-77
2023/07/30 08:50:20;;;;;;;6.07;2.83;;;;;;;23.97;64.10;99441.59;7776770;32;40204;-75
2023/07/30 08:54:38;;;;;;;6.07;2.58;;;;;;;24.09;64.01;99437.00;7790663;32;37969;-77
2023/07/30 08:58:57;;;;;;;4.85;2.50;;;;;;;24.19;64.03;99431.63;7790541;32;37185;-76
2023/07/30 09:03:15;;;;;;;6.03;3.03;;;;;;;24.19;63.28;99433.59;7777191;32;39230;-77
2023/07/30 09:07:31;;;;;;;8.18;2.92;;;;;;;24.16;63.41;99432.38;7777806;32;40478;-82
2023/07/30 09:11:54;;;;;;;4.30;2.83;;;;;;;24.31;63.39;99433.41;7789688;32;38744;-82
2023/07/30 09:16:12;;;;;;;4.82;2.80;;;;;;;24.10;64.16;99441.41;7790249;32;37787;-84
2023/07/30 09:20:38;;;;;;;6.82;3.05;;;;;;;24.17;63.29;99439.53;7789724;32;39071;-77
2023/07/30 09:24:56;;;;;;;6.55;3.08;;;;;;;24.09;63.37;99445.37;7777502;32;41249;-78
2023/07/30 09:29:13;;;;;;;7.40;3.92;;;;;;;23.91;63.63;99440.28;7788941;32;38657;-78
2023/07/30 09:33:30;;;;;;;8.40;4.18;;;;;;;23.77;64.54;99443.59;7789571;32;37607;-77
2023/07/30 09:37:47;;;;;;;7.75;3.90;;;;;;;23.87;64.04;99430.25;7775271;32;39861;-77
2023/07/30 09:42:05;;;;;;;6.60;3.72;;;;;;;23.73;64.61;99430.78;7781592;32;40025;-77
2023/07/30 09:46:21;;;;;;;7.18;3.67;;;;;;;23.78;64.74;99424.91;7771910;32;37676;-77
2023/07/30 09:50:38;;;;;;;8.65;3.47;;;;;;;23.79;65.06;99418.19;7783451;32;38240;-76
2023/07/30 09:54:55;;;;;;;6.55;3.50;;;;;;;23.78;65.12;99420.16;7787365;32;40045;-77
2023/07/30 09:59:12;;;;;;;6.30;3.53;;;;;;;24.02;64.65;99414.63;7779510;32;40862;-77
2023/07/30 10:03:28;;;;;;;4.47;2.87;;;;;;;23.87;65.15;99417.16;7791223;32;38803;-82
2023/07/30 10:08:03;;;;;;;6.95;2.92;;;;;;;24.11;63.35;99415.16;7764622;32;37791;-82
2023/07/30 10:12:24;;;;;;;6.30;3.10;;;;;;;24.06;63.51;99412.69;7761963;32;39413;-79
2023/07/30 10:16:50;;;;;;;3.87;2.60;;;;;;;24.07;63.28;99405.97;7780188;32;41795;-77
2023/07/30 10:21:11;;;;;;;5.80;2.95;;;;;;;24.33;63.30;99403.19;7764846;32;37866;-80
2023/07/30 10:25:48;;;;;;;7.30;3.20;;;;;;;24.11;61.73;99407.63;7778429;32;38051;-81
2023/07/30 10:30:13;;;;;;;4.62;3.10;;;;;;;24.05;61.67;99411.09;7770677;32;39141;-74
2023/07/30 10:34:46;;;;;;;7.72;3.08;;;;;;;24.10;62.63;99405.22;7791908;32;40866;-78
2023/07/30 10:39:32;;;;;;;7.37;2.92;;;;;;;24.40;61.51;99407.28;7792930;32;38680;-78
2023/07/30 10:43:49;;;;;;;6.15;3.30;;;;;;;24.53;61.20;99389.16;7777224;32;37022;-77
2023/07/30 10:48:06;;;;;;;6.25;2.70;;;;;;;24.54;62.31;99391.63;7782389;32;39408;-77
2023/07/30 10:52:26;;;;;;;7.18;3.08;;;;;;;24.77;61.51;99387.12;7772578;32;40786;-77
2023/07/30 10:56:43;;;;;;;3.90;2.58;;;;;;;24.70;61.49;99390.63;7774213;32;35950;-77
2023/07/30 11:01:03;;;;;;;5.10;2.70;;;;;;;24.51;62.11;99380.41;7770945;32;36797;-76
2023/07/30 11:05:20;;;;;;;6.30;2.85;;;;;;;24.92;60.36;99377.78;7775627;32;39432;-75
2023/07/30 11:09:36;;;;;;;5.00;2.75;;;;;;;24.81;59.23;99383.22;7770278;32;39451;-74
2023/07/30 11:13:52;;;;;;;5.60;2.90;;;;;;;24.74;61.25;99395.06;7773236;32;38268;-75
2023/07/30 11:18:09;;;;;;;4.68;2.62;;;;;;;24.43;61.98;99400.97;7771036;32;37120;-76
2023/07/30 11:22:33;;;;;;;4.90;2.85;;;;;;;24.36;61.58;99408.00;7775378;32;39842;-75
2023/07/30 11:26:59;;;;;;;5.53;3.17;;;;;;;24.31;62.16;99411.12;7772716;32;40022;-80
2023/07/30 11:31:19;;;;;;;4.55;2.78;;;;;;;24.18;63.15;99402.19;7777600;32;38744;-74
2023/07/30 11:35:35;;;;;;;5.20;2.80;;;;;;;24.31;63.20;99396.41;7776278;32;37097;-81
2023/07/30 11:39:52;;;;;;;5.32;3.05;;;;;;;24.13;63.92;99398.91;7777940;32;39463;-80
2023/07/30 11:44:08;;;;;;;7.57;3.50;;;;;;;24.42;62.82;99389.00;7767980;32;40777;-78
2023/07/30 11:48:26;;;;;;;7.97;2.85;;;;;;;24.17;63.33;99411.69;7767854;32;37696;-78
2023/07/30 11:52:56;;;;;;;5.32;2.60;;;;;;;22.60;64.74;99451.06;7757320;32;37160;-78
2023/07/30 11:57:13;;;;;;;5.53;2.78;;;;;;;21.79;68.14;99443.06;7774182;32;40111;-77
2023/07/30 12:01:31;;;;;;;3.92;2.40;;;;;;;21.36;71.01;99453.75;7740494;32;40674;-79
2023/07/30 12:05:50;;;;;;;5.07;2.72;;;;;;;21.27;71.36;99456.66;7743899;32;36889;-79
2023/07/30 12:10:11;;;;;;;4.32;2.42;;;;;;;20.99;72.57;99451.09;7742639;32;37771;-79
2023/07/30 12:14:48;;;;;;;5.82;2.58;;;;;;;21.14;72.22;99449.53;7750921;32;39874;-75
2023/07/30 12:19:05;;;;;;;6.75;2.80;;;;;;;21.06;73.34;99445.75;7746605;32;40053;-80
2023/07/30 12:23:21;;;;;;;5.20;2.53;;;;;;;21.30;72.69;99436.56;7751375;32;38420;-80
2023/07/30 12:27:37;;;;;;;6.80;2.40;;;;;;;21.66;71.89;99422.88;7743096;32;37797;-80
2023/07/30 12:31:55;;;;;;;4.55;2.62;;;;;;;21.37;71.32;99428.44;7762239;32;39495;-79
2023/07/30 12:36:13;;;;;;;7.72;2.60;;;;;;;21.66;71.40;99412.63;7756162;32;38953;-79
2023/07/30 12:40:33;;;;;;;3.67;2.30;;;;;;;22.43;69.94;99403.03;7734787;32;37821;-75
2023/07/30 12:44:50;;;;;;;6.87;2.47;;;;;;;22.78;68.45;99396.66;7756791;32;37110;-77
2023/07/30 12:49:07;;;;;;;3.67;1.92;;;;;;;23.32;68.99;99383.94;7762959;32;39523;-78
2023/07/30 12:53:30;;;;;;;4.55;1.87;;;;;;;22.85;65.14;99382.97;7762927;32;39819;-78
2023/07/30 12:57:52;;;;;;;4.32;2.40;;;;;;;23.90;65.66;99363.50;7760762;32;38731;-70
2023/07/30 13:02:09;;;;;;;2.67;1.60;;;;;;;23.21;64.83;99361.44;7788450;32;36844;-78
2023/07/30 13:06:27;;;;;;;4.80;1.92;;;;;;;23.92;63.31;99344.50;7780992;32;37873;-86
2023/07/30 13:10:45;;;;;;;3.35;1.70;;;;;;;24.19;61.12;99352.84;7775508;32;41610;-85
2023/07/30 13:15:05;;;;;;;5.00;2.10;;;;;;;23.87;62.36;99339.22;7779357;32;36876;-84
2023/07/30 13:19:22;;;;;;;2.58;2.00;;;;;;;23.60;64.42;99333.56;7785740;32;36621;-85
2023/07/30 13:23:40;;;;;;;3.47;1.90;;;;;;;24.18;63.40;99331.72;7782588;32;39233;-84
2023/07/30 13:27:58;;;;;;;4.28;1.98;;;;;;;25.06;61.61;99322.19;7775523;32;40568;-82
2023/07/30 13:32:17;;;;;;;2.65;1.75;;;;;;;24.66;59.20;99326.47;7784565;32;37863;-83
2023/07/30 13:36:39;;;;;;;5.37;2.47;;;;;;;24.34;59.07;99326.81;7770610;32;37878;-74
2023/07/30 13:40:58;;;;;;;8.90;2.72;;;;;;;24.93;59.71;99318.03;7792212;32;39940;-75
2023/07/30 13:45:18;;;;;;;3.08;1.98;;;;;;;24.90;58.29;99293.72;7781212;32;39770;-73
2023/07/30 13:49:43;;;;;;;4.70;2.15;;;;;;;25.86;56.40;99290.28;7792770;32;37910;-71
2023/07/30 13:54:01;;;;;;;3.20;2.20;;;;;;;24.63;59.02;99282.66;7771489;32;36351;-72
2023/07/30 13:58:18;;;;;;;4.82;2.30;;;;;;;24.58;58.77;99271.84;7784341;32;40105;-72
2023/07/30 14:02:34;;;;;;;3.28;2.00;;;;;;;25.32;59.06;99267.50;7782885;32;39920;-73
2023/07/30 14:06:51;;;;;;;3.45;2.15;;;;;;;26.04;57.47;99254.94;7779273;32;38513;-73
2023/07/30 14:11:09;;;;;;;3.22;1.98;;;;;;;25.81;56.13;99260.72;7778159;32;37173;-74
2023/07/30 14:15:25;;;;;;;4.18;2.10;;;;;;;26.30;54.91;99263.44;7782032;32;40047;-71
2023/07/30 14:19:42;;;;;;;2.83;1.90;;;;;;;26.03;54.26;99272.06;7787817;32;39406;-72
2023/07/30 14:23:58;;;;;;;2.15;1.75;;;;;;;25.44;54.90;99264.44;7782170;32;38249;-72
2023/07/30 14:28:19;;;;;;;4.25;2.25;;;;;;;25.27;55.30;99274.22;7765734;32;35499;-73
2023/07/30 14:32:36;;;;;;;6.65;2.15;;;;;;;24.89;57.87;99280.97;7765283;32;39461;-75
2023/07/30 14:36:53;;;;;;;2.87;2.12;;;;;;;24.92;57.00;99283.81;7769226;32;39967;-76
2023/07/30 14:41:10;;;;;;;6.65;2.20;;;;;;;24.96;57.20;99283.00;7774614;32;38465;-75
2023/07/30 14:45:27;;;;;;;2.75;2.17;;;;;;;24.59;57.88;99284.59;7772307;32;38160;-75
2023/07/30 14:49:44;;;;;;;3.47;2.17;;;;;;;24.19;58.54;99286.00;7773128;32;39043;-76
2023/07/30 14:54:00;;;;;;;3.53;2.30;;;;;;;24.03;60.11;99282.59;7774716;32;39920;-76
2023/07/30 14:58:19;;;;;;;3.05;2.10;;;;;;;24.09;60.30;99272.75;7772806;32;39135;-83
2023/07/30 15:02:40;;;;;;;3.40;2.40;;;;;;;24.26;60.43;99252.69;7765452;32;37017;-84
2023/07/30 15:06:59;;;;;;;3.03;2.12;;;;;;;24.41;59.87;99252.91;7782384;32;40022;-84
2023/07/30 15:11:19;;;;;;;3.87;2.42;;;;;;;23.94;61.62;99246.66;7762615;32;38563;-82
2023/07/30 15:15:36;;;;;;;3.90;2.00;;;;;;;23.87;61.69;99238.22;7772014;32;38064;-81
2023/07/30 15:19:54;;;;;;;6.68;2.25;;;;;;;23.96;62.12;99227.62;7765171;32;37224;-81
2023/07/30 15:24:13;;;;;;;9.20;2.75;;;;;;;24.11;61.80;99229.44;7772354;32;39149;-82
2023/07/30 15:28:32;;;;;;;6.93;2.42;;;;;;;23.48;64.34;99219.72;7778396;32;39903;-79
2023/07/30 15:32:50;;;;;;;3.30;2.33;;;;;;;24.01;63.61;99230.09;7791313;32;36987;-77
2023/07/30 15:37:08;;;;;;;4.18;2.30;;;;;;;23.70;64.81;99225.59;7778838;32;36359;-78
2023/07/30 15:41:26;;;;;;;4.87;2.20;;;;;;;23.76;64.54;99219.34;7769764;32;39122;-79
2023/07/30 15:45:45;;;;;;;5.30;2.45;;;;;;;24.11;65.05;99237.78;7791813;32;38930;-80
2023/07/30 15:50:07;;;;;;;2.72;2.00;;;;;;;24.58;62.14;99230.06;7774927;32;37887;-80
2023/07/30 15:54:34;;;;;;;3.12;2.00;;;;;;;24.66;61.26;99220.56;7767536;32;37566;-81
2023/07/30 15:59:03;;;;;;;2.97;2.12;;;;;;;24.20;62.72;99240.28;7777813;32;39397;-82
2023/07/30 16:03:28;;;;;;;3.35;2.37;;;;;;;23.95;63.37;99237.94;7791964;32;39714;-82
2023/07/30 16:07:49;;;;;;;5.72;2.20;;;;;;;23.76;64.32;99255.50;7791097;32;36957;-82
2023/07/30 16:12:16;;;;;;;2.72;2.08;;;;;;;23.70;64.82;99237.56;7780019;32;38123;-80
2023/07/30 16:16:39;;;;;;;3.65;2.12;;;;;;;23.93;63.97;99254.22;7780298;32;39691;-80
2023/07/30 16:21:05;;;;;;;3.08;1.95;;;;;;;24.15;63.48;99246.19;7791482;32;40019;-82
2023/07/30 16:25:25;;;;;;;2.97;2.00;;;;;;;24.38;62.31;99249.66;7781990;32;37773;-82
2023/07/30 16:29:47;;;;;;;3.35;2.10;;;;;;;24.32;61.27;99245.63;7777220;32;37206;-81
2023/07/30 16:34:06;;;;;;;3.50;2.10;;;;;;;24.04;61.69;99245.22;7764164;32;40186;-81
2023/07/30 16:38:23;;;;;;;4.95;2.17;;;;;;;24.23;61.98;99247.88;7779195;32;41257;-84
2023/07/30 16:42:40;;;;;;;2.35;1.80;;;;;;;24.46;61.96;99252.56;7775506;32;37879;-86
2023/07/30 16:46:56;;;;;;;3.75;2.30;;;;;;;24.11;62.80;99251.72;7790004;32;37130;-76
2023/07/30 16:51:13;;;;;;;4.50;2.10;;;;;;;23.81;64.16;99237.72;7770673;32;40098;-80
2023/07/30 16:55:32;;;;;;;2.83;1.87;;;;;;;24.15;62.78;99246.97;7775516;32;40629;-79
2023/07/30 16:59:49;;;;;;;2.15;1.50;;;;;;;24.43;61.73;99262.47;7792014;32;38048;-79
2023/07/30 17:04:07;;;;;;;2.20;1.55;;;;;;;24.55;60.27;99241.94;7794129;32;37768;-79
2023/07/30 17:08:25;;;;;;;2.35;1.73;;;;;;;24.33;60.25;99255.56;7793566;32;39400;-82
2023/07/30 17:12:41;;;;;;;5.00;1.40;;;;;;;24.19;60.82;99263.72;7788849;32;40541;-85
2023/07/30 17:16:57;;;;;;;2.45;1.40;;;;;;;24.38;60.73;99268.38;7794025;32;38613;-85
2023/07/30 17:21:14;;;;;;;2.83;1.60;;;;;;;24.69;60.08;99255.25;7793366;32;37284;-85
2023/07/30 17:25:31;;;;;;;3.62;2.03;;;;;;;24.72;60.03;99272.00;7778813;32;39252;-84
2023/07/30 17:29:47;;;;;;;2.30;1.75;;;;;;;24.66;60.07;99270.72;7766450;32;39792;-85
2023/07/30 17:34:03;;;;;;;3.15;1.80;;;;;;;24.88;59.67;99266.22;7765848;32;37743;-85
2023/07/30 17:38:20;;;;;;;2.53;1.62;;;;;;;25.19;58.39;99282.88;7766624;32;37320;-85
2023/07/30 17:42:39;;;;;;;1.77;1.23;;;;;;;25.17;57.76;99293.63;7769428;32;39470;-86
2023/07/30 17:46:56;;;;;;;2.45;1.48;;;;;;;24.84;58.54;99292.47;7790464;32;40003;-86
2023/07/30 17:51:16;;;;;;;2.03;1.40;;;;;;;24.52;59.47;99303.97;7791287;32;37604;-85
2023/07/30 17:55:33;;;;;;;3.80;1.67;;;;;;;24.60;59.39;99300.13;7792969;32;37720;-85
2023/07/30 17:59:49;;;;;;;2.60;1.98;;;;;;;24.69;59.26;99314.56;7793369;32;39023;-85
2023/07/30 18:04:06;;;;;;;2.83;1.77;;;;;;;24.38;60.30;99316.50;7793337;32;40844;-85
2023/07/30 18:08:23;;;;;;;3.58;2.10;;;;;;;24.53;59.94;99314.75;7793303;32;38032;-85
2023/07/30 18:12:39;;;;;;;2.53;1.95;;;;;;;24.31;60.79;99321.19;7753098;32;36892;-82
2023/07/30 18:16:55;;;;;;;3.40;1.92;;;;;;;24.44;60.27;99325.38;7766108;32;39390;-85
2023/07/30 18:21:12;;;;;;;2.72;1.90;;;;;;;24.26;60.91;99327.88;7752394;32;39948;-83
2023/07/30 18:25:28;;;;;;;2.95;1.90;;;;;;;24.34;60.54;99331.59;7789118;32;37990;-85
2023/07/30 18:29:44;;;;;;;2.80;1.83;;;;;;;24.27;60.62;99325.91;7779181;32;37131;-85
2023/07/30 18:34:02;;;;;;;3.03;2.05;;;;;;;24.12;61.11;99336.81;7791668;32;39131;-85
2023/07/30 18:38:21;;;;;;;5.35;2.30;;;;;;;24.08;61.30;99343.53;7792882;32;40072;-85
2023/07/30 18:42:40;;;;;;;1.95;1.60;;;;;;;24.11;61.02;99346.37;7792879;32;37189;-85
2023/07/30 18:47:00;;;;;;;4.03;1.77;;;;;;;23.96;61.46;99356.47;7792988;32;36955;-85
2023/07/30 18:51:17;;;;;;;4.62;1.80;;;;;;;23.98;61.34;99358.88;7792721;32;40125;-84
2023/07/30 18:55:36;;;;;;;3.28;1.55;;;;;;;23.94;61.65;99353.25;7792823;32;40579;-85
2023/07/30 18:59:54;;;;;;;3.65;2.10;;;;;;;23.74;62.29;99355.28;7792307;32;38768;-86
2023/07/30 19:04:11;;;;;;;4.32;2.15;;;;;;;23.72;62.21;99359.63;7792594;32;37122;-85
2023/07/30 19:08:28;;;;;;;3.58;2.10;;;;;;;23.68;62.26;99365.12;7792520;32;39477;-85
2023/07/30 19:12:44;;;;;;;1.90;1.70;;;;;;;23.55;62.54;99364.47;7792527;32;41486;-86
2023/07/30 19:17:01;;;;;;;3.55;1.98;;;;;;;23.42;63.59;99366.63;7792388;32;38633;-85
2023/07/30 19:21:17;;;;;;;3.45;2.20;;;;;;;23.43;63.70;99371.00;7791872;32;36990;-85
2023/07/30 19:25:33;;;;;;;3.80;1.92;;;;;;;23.29;64.45;99373.53;7792404;32;40130;-85
2023/07/30 19:29:50;;;;;;;6.12;2.08;;;;;;;23.28;64.66;99376.69;7791380;32;40831;-87
2023/07/30 19:34:11;;;;;;;4.00;1.95;;;;;;;23.19;64.67;99374.13;7782595;32;37882;-86
2023/07/30 19:38:28;;;;;;;6.15;2.03;;;;;;;23.24;64.46;99388.53;7778362;32;36769;-86
2023/07/30 19:42:44;;;;;;;4.53;2.03;;;;;;;23.15;64.73;99392.72;7789760;32;40027;-85
2023/07/30 19:47:00;;;;;;;5.03;1.98;;;;;;;22.83;66.01;99396.38;7783889;32;39917;-86
2023/07/30 19:51:17;;;;;;;3.25;2.05;;;;;;;22.85;65.77;99387.69;7789228;32;37890;-85
2023/07/30 19:55:34;;;;;;;4.72;2.30;;;;;;;22.85;65.30;99390.47;7791208;32;37873;-84
2023/07/30 19:59:50;;;;;;;5.18;2.60;;;;;;;22.90;64.85;99400.50;7790474;32;39253;-84
2023/07/30 20:04:07;;;;;;;4.00;2.30;;;;;;;22.92;64.38;99387.03;7788869;32;37591;-83
2023/07/30 20:08:23;;;;;;;3.30;2.17;;;;;;;22.80;64.49;99397.13;7787976;32;37780;-85
2023/07/30 20:12:41;;;;;;;7.22;2.37;;;;;;;22.63;64.76;99397.56;7790833;32;37089;-85
2023/07/30 20:16:58;;;;;;;3.50;2.40;;;;;;;22.56;64.88;99389.03;7790522;32;37899;-86